sensor_id;sensor_type;location;lat;lon;timestamp;P1;durP1;ratioP1;P2;durP2;ratioP2
11255;SDS011;5685;52.384;13.420;2023-03-25T00:02:58;73.97;;;40.10;;
11255;SDS011;5685;52.384;13.420;2023-03-25T00:06:00;74.20;;;40.30;;
11255;SDS011;5685;52.384;13.420;2023-03-25T00:09:05;74.30;;;40.30;;
11255;SDS011;5685;52.384;13.420;2023-03-25T00:12:09;73.97;;;40.17;;
11255;SDS011;5685;52.384;13.420;2023-03-25T00:15:12;73.77;;;40.10;;
11255;SDS011;5685;52.384;13.420;2023-03-25T00:18:17;73.97;;;40.20;;
11255;SDS011;5685;52.384;13.420;2023-03-25T00:21:20;73.87;;;40.10;;
11255;SDS011;5685;52.384;13.420;2023-03-25T00:24:22;73.93;;;40.10;;
11255;SDS011;5685;52.384;13.420;2023-03-25T00:27:25;73.83;;;40.20;;
11255;SDS011;5685;52.384;13.420;2023-03-25T00:30:28;73.53;;;40.07;;
11255;SDS011;5685;52.384;13.420;2023-03-25T00:33:32;73.43;;;40.20;;
11255;SDS011;5685;52.384;13.420;2023-03-25T00:36:35;73.67;;;40.23;;
11255;SDS011;5685;52.384;13.420;2023-03-25T00:39:38;73.70;;;40.20;;
11255;SDS011;5685;52.384;13.420;2023-03-25T00:42:41;73.33;;;39.93;;
11255;SDS011;5685;52.384;13.420;2023-03-25T00:45:43;73.20;;;39.83;;
11255;SDS011;5685;52.384;13.420;2023-03-25T00:48:48;73.80;;;40.10;;
11255;SDS011;5685;52.384;13.420;2023-03-25T00:51:51;73.50;;;40.10;;
11255;SDS011;5685;52.384;13.420;2023-03-25T00:54:55;73.57;;;40.10;;
11255;SDS011;5685;52.384;13.420;2023-03-25T00:57:57;73.93;;;40.23;;
11255;SDS011;5685;52.384;13.420;2023-03-25T01:01:00;73.80;;;40.13;;
11255;SDS011;5685;52.384;13.420;2023-03-25T01:04:11;73.93;;;40.30;;
11255;SDS011;5685;52.384;13.420;2023-03-25T01:07:16;73.53;;;40.00;;
11255;SDS011;5685;52.384;13.420;2023-03-25T01:10:20;73.87;;;40.20;;
11255;SDS011;5685;52.384;13.420;2023-03-25T01:13:22;74.37;;;40.37;;
11255;SDS011;5685;52.384;13.420;2023-03-25T01:16:25;73.50;;;40.07;;
11255;SDS011;5685;52.384;13.420;2023-03-25T01:19:30;73.70;;;39.97;;
11255;SDS011;5685;52.384;13.420;2023-03-25T01:22:33;73.60;;;40.00;;
11255;SDS011;5685;52.384;13.420;2023-03-25T01:25:36;73.60;;;40.00;;
11255;SDS011;5685;52.384;13.420;2023-03-25T01:28:39;73.70;;;40.00;;
11255;SDS011;5685;52.384;13.420;2023-03-25T01:31:42;73.67;;;39.93;;
11255;SDS011;5685;52.384;13.420;2023-03-25T01:34:46;73.40;;;39.87;;
11255;SDS011;5685;52.384;13.420;2023-03-25T01:37:49;73.30;;;39.87;;
11255;SDS011;5685;52.384;13.420;2023-03-25T01:40:53;73.90;;;40.10;;
11255;SDS011;5685;52.384;13.420;2023-03-25T01:44:00;73.67;;;40.10;;
11255;SDS011;5685;52.384;13.420;2023-03-25T01:47:07;73.87;;;40.07;;
11255;SDS011;5685;52.384;13.420;2023-03-25T01:50:11;73.80;;;39.97;;
11255;SDS011;5685;52.384;13.420;2023-03-25T01:53:15;73.40;;;39.87;;
11255;SDS011;5685;52.384;13.420;2023-03-25T01:56:19;73.60;;;40.00;;
11255;SDS011;5685;52.384;13.420;2023-03-25T01:59:26;73.67;;;40.03;;
11255;SDS011;5685;52.384;13.420;2023-03-25T02:02:29;73.57;;;39.97;;
11255;SDS011;5685;52.384;13.420;2023-03-25T02:05:38;73.87;;;40.20;;
11255;SDS011;5685;52.384;13.420;2023-03-25T02:08:45;73.03;;;39.80;;
11255;SDS011;5685;52.384;13.420;2023-03-25T02:11:48;73.30;;;39.83;;
11255;SDS011;5685;52.384;13.420;2023-03-25T02:14:53;73.23;;;39.80;;
11255;SDS011;5685;52.384;13.420;2023-03-25T02:18:12;73.27;;;39.83;;
11255;SDS011;5685;52.384;13.420;2023-03-25T02:25:10;73.63;;;40.00;;
11255;SDS011;5685;52.384;13.420;2023-03-25T02:28:19;73.20;;;39.93;;
11255;SDS011;5685;52.384;13.420;2023-03-25T02:31:35;72.97;;;39.80;;
11255;SDS011;5685;52.384;13.420;2023-03-25T02:34:56;73.37;;;40.00;;
11255;SDS011;5685;52.384;13.420;2023-03-25T02:38:18;73.43;;;40.00;;
11255;SDS011;5685;52.384;13.420;2023-03-25T02:41:27;73.47;;;39.90;;
11255;SDS011;5685;52.384;13.420;2023-03-25T02:44:34;73.57;;;39.97;;
11255;SDS011;5685;52.384;13.420;2023-03-25T02:47:41;73.60;;;40.00;;
11255;SDS011;5685;52.384;13.420;2023-03-25T02:50:47;72.77;;;39.60;;
11255;SDS011;5685;52.384;13.420;2023-03-25T02:53:54;73.10;;;39.80;;
11255;SDS011;5685;52.384;13.420;2023-03-25T02:56:59;73.00;;;39.80;;
11255;SDS011;5685;52.384;13.420;2023-03-25T03:00:03;73.37;;;40.00;;
11255;SDS011;5685;52.384;13.420;2023-03-25T03:03:13;73.27;;;39.80;;
11255;SDS011;5685;52.384;13.420;2023-03-25T03:06:16;73.30;;;39.90;;
11255;SDS011;5685;52.384;13.420;2023-03-25T03:09:23;73.57;;;40.00;;
11255;SDS011;5685;52.384;13.420;2023-03-25T03:12:34;73.50;;;39.90;;
11255;SDS011;5685;52.384;13.420;2023-03-25T03:15:51;72.70;;;39.70;;
11255;SDS011;5685;52.384;13.420;2023-03-25T03:18:59;72.87;;;39.80;;
11255;SDS011;5685;52.384;13.420;2023-03-25T03:22:11;72.97;;;39.80;;
11255;SDS011;5685;52.384;13.420;2023-03-25T03:25:21;73.00;;;39.80;;
11255;SDS011;5685;52.384;13.420;2023-03-25T03:28:29;73.70;;;39.90;;
11255;SDS011;5685;52.384;13.420;2023-03-25T03:31:36;73.00;;;39.73;;
11255;SDS011;5685;52.384;13.420;2023-03-25T03:34:42;73.10;;;39.73;;
11255;SDS011;5685;52.384;13.420;2023-03-25T03:37:46;72.87;;;39.60;;
11255;SDS011;5685;52.384;13.420;2023-03-25T03:40:54;73.07;;;39.60;;
11255;SDS011;5685;52.384;13.420;2023-03-25T03:43:59;73.47;;;39.70;;
11255;SDS011;5685;52.384;13.420;2023-03-25T03:47:04;73.37;;;39.77;;
11255;SDS011;5685;52.384;13.420;2023-03-25T03:50:10;73.37;;;39.77;;
11255;SDS011;5685;52.384;13.420;2023-03-25T03:53:16;73.70;;;39.93;;
11255;SDS011;5685;52.384;13.420;2023-03-25T03:56:23;72.77;;;39.50;;
11255;SDS011;5685;52.384;13.420;2023-03-25T03:59:34;73.33;;;39.80;;
11255;SDS011;5685;52.384;13.420;2023-03-25T04:02:40;73.50;;;39.73;;
11255;SDS011;5685;52.384;13.420;2023-03-25T04:05:47;72.77;;;39.60;;
11255;SDS011;5685;52.384;13.420;2023-03-25T04:08:54;73.30;;;39.70;;
11255;SDS011;5685;52.384;13.420;2023-03-25T04:12:01;73.07;;;39.60;;
11255;SDS011;5685;52.384;13.420;2023-03-25T04:15:06;73.53;;;39.83;;
11255;SDS011;5685;52.384;13.420;2023-03-25T04:18:09;73.20;;;39.67;;
11255;SDS011;5685;52.384;13.420;2023-03-25T04:21:12;73.40;;;39.67;;
11255;SDS011;5685;52.384;13.420;2023-03-25T04:24:16;73.67;;;39.73;;
11255;SDS011;5685;52.384;13.420;2023-03-25T04:27:21;73.60;;;39.73;;
11255;SDS011;5685;52.384;13.420;2023-03-25T04:30:24;73.90;;;39.87;;
11255;SDS011;5685;52.384;13.420;2023-03-25T04:33:27;73.20;;;39.47;;
11255;SDS011;5685;52.384;13.420;2023-03-25T04:36:31;73.40;;;39.67;;
11255;SDS011;5685;52.384;13.420;2023-03-25T04:39:36;73.53;;;39.67;;
11255;SDS011;5685;52.384;13.420;2023-03-25T04:42:41;73.87;;;39.80;;
11255;SDS011;5685;52.384;13.420;2023-03-25T04:45:45;73.43;;;39.70;;
11255;SDS011;5685;52.384;13.420;2023-03-25T04:48:53;73.53;;;39.70;;
11255;SDS011;5685;52.384;13.420;2023-03-25T04:51:55;73.87;;;39.90;;
11255;SDS011;5685;52.384;13.420;2023-03-25T04:55:01;73.60;;;39.70;;
11255;SDS011;5685;52.384;13.420;2023-03-25T04:58:08;73.57;;;39.67;;
11255;SDS011;5685;52.384;13.420;2023-03-25T05:01:14;73.87;;;39.77;;
11255;SDS011;5685;52.384;13.420;2023-03-25T05:04:22;73.73;;;39.67;;
11255;SDS011;5685;52.384;13.420;2023-03-25T05:07:24;73.77;;;39.73;;
11255;SDS011;5685;52.384;13.420;2023-03-25T05:10:29;74.10;;;39.93;;
11255;SDS011;5685;52.384;13.420;2023-03-25T05:13:33;74.27;;;40.00;;
11255;SDS011;5685;52.384;13.420;2023-03-25T05:16:35;73.50;;;39.50;;
11255;SDS011;5685;52.384;13.420;2023-03-25T05:19:38;73.70;;;39.73;;
11255;SDS011;5685;52.384;13.420;2023-03-25T05:22:42;73.87;;;39.73;;
11255;SDS011;5685;52.384;13.420;2023-03-25T05:25:45;73.97;;;39.87;;
11255;SDS011;5685;52.384;13.420;2023-03-25T05:28:50;73.87;;;39.70;;
11255;SDS011;5685;52.384;13.420;2023-03-25T05:31:55;74.17;;;39.83;;
11255;SDS011;5685;52.384;13.420;2023-03-25T05:34:58;73.90;;;39.77;;
11255;SDS011;5685;52.384;13.420;2023-03-25T05:38:01;74.17;;;39.87;;
11255;SDS011;5685;52.384;13.420;2023-03-25T05:41:03;73.70;;;39.70;;
11255;SDS011;5685;52.384;13.420;2023-03-25T05:44:12;74.53;;;40.10;;
11255;SDS011;5685;52.384;13.420;2023-03-25T05:47:18;73.97;;;39.80;;
11255;SDS011;5685;52.384;13.420;2023-03-25T05:50:22;74.10;;;39.90;;
11255;SDS011;5685;52.384;13.420;2023-03-25T05:53:26;73.67;;;39.77;;
11255;SDS011;5685;52.384;13.420;2023-03-25T05:56:30;73.90;;;39.83;;
11255;SDS011;5685;52.384;13.420;2023-03-25T05:59:34;74.13;;;40.00;;
11255;SDS011;5685;52.384;13.420;2023-03-25T06:02:40;73.93;;;39.80;;
11255;SDS011;5685;52.384;13.420;2023-03-25T06:05:43;73.77;;;39.70;;
11255;SDS011;5685;52.384;13.420;2023-03-25T06:08:47;74.20;;;39.90;;
11255;SDS011;5685;52.384;13.420;2023-03-25T06:11:50;73.83;;;39.80;;
11255;SDS011;5685;52.384;13.420;2023-03-25T06:14:54;74.07;;;39.90;;
11255;SDS011;5685;52.384;13.420;2023-03-25T06:17:57;73.87;;;39.70;;
11255;SDS011;5685;52.384;13.420;2023-03-25T06:21:00;74.17;;;39.80;;
11255;SDS011;5685;52.384;13.420;2023-03-25T06:24:02;74.07;;;39.60;;
11255;SDS011;5685;52.384;13.420;2023-03-25T06:27:06;74.40;;;39.90;;
11255;SDS011;5685;52.384;13.420;2023-03-25T06:30:16;73.60;;;39.50;;
11255;SDS011;5685;52.384;13.420;2023-03-25T06:33:19;73.90;;;39.60;;
11255;SDS011;5685;52.384;13.420;2023-03-25T06:36:22;73.90;;;39.60;;
11255;SDS011;5685;52.384;13.420;2023-03-25T06:39:26;73.50;;;39.60;;
11255;SDS011;5685;52.384;13.420;2023-03-25T06:42:30;74.20;;;39.80;;
11255;SDS011;5685;52.384;13.420;2023-03-25T06:45:35;73.90;;;39.67;;
11255;SDS011;5685;52.384;13.420;2023-03-25T06:48:37;74.13;;;39.80;;
11255;SDS011;5685;52.384;13.420;2023-03-25T06:51:40;74.03;;;39.73;;
11255;SDS011;5685;52.384;13.420;2023-03-25T06:54:43;73.97;;;39.80;;
11255;SDS011;5685;52.384;13.420;2023-03-25T06:57:45;73.83;;;39.73;;
11255;SDS011;5685;52.384;13.420;2023-03-25T07:00:53;74.10;;;39.80;;
11255;SDS011;5685;52.384;13.420;2023-03-25T07:03:56;73.83;;;39.67;;
11255;SDS011;5685;52.384;13.420;2023-03-25T07:06:58;73.87;;;39.57;;
11255;SDS011;5685;52.384;13.420;2023-03-25T07:10:01;74.07;;;39.67;;
11255;SDS011;5685;52.384;13.420;2023-03-25T07:13:04;74.37;;;39.87;;
11255;SDS011;5685;52.384;13.420;2023-03-25T07:16:09;74.40;;;39.90;;
11255;SDS011;5685;52.384;13.420;2023-03-25T07:19:11;74.07;;;39.70;;
11255;SDS011;5685;52.384;13.420;2023-03-25T07:22:14;73.93;;;39.63;;
11255;SDS011;5685;52.384;13.420;2023-03-25T07:25:17;73.90;;;39.50;;
11255;SDS011;5685;52.384;13.420;2023-03-25T07:28:19;74.37;;;39.70;;
11255;SDS011;5685;52.384;13.420;2023-03-25T07:31:23;74.23;;;39.60;;
11255;SDS011;5685;52.384;13.420;2023-03-25T07:34:26;74.37;;;39.90;;
11255;SDS011;5685;52.384;13.420;2023-03-25T07:37:29;74.57;;;39.90;;
11255;SDS011;5685;52.384;13.420;2023-03-25T07:40:32;74.60;;;39.80;;
11255;SDS011;5685;52.384;13.420;2023-03-25T07:43:35;73.93;;;39.60;;
11255;SDS011;5685;52.384;13.420;2023-03-25T07:46:39;73.93;;;39.50;;
11255;SDS011;5685;52.384;13.420;2023-03-25T07:49:42;73.77;;;39.40;;
11255;SDS011;5685;52.384;13.420;2023-03-25T07:52:46;73.53;;;39.50;;
11255;SDS011;5685;52.384;13.420;2023-03-25T07:55:49;73.63;;;39.70;;
11255;SDS011;5685;52.384;13.420;2023-03-25T07:58:52;73.47;;;39.60;;
11255;SDS011;5685;52.384;13.420;2023-03-25T08:01:56;73.07;;;39.30;;
11255;SDS011;5685;52.384;13.420;2023-03-25T08:04:59;73.53;;;39.67;;
11255;SDS011;5685;52.384;13.420;2023-03-25T08:08:03;73.33;;;39.50;;
11255;SDS011;5685;52.384;13.420;2023-03-25T08:11:06;73.40;;;39.60;;
11255;SDS011;5685;52.384;13.420;2023-03-25T08:14:09;73.27;;;39.43;;
11255;SDS011;5685;52.384;13.420;2023-03-25T08:17:14;73.60;;;39.63;;
11255;SDS011;5685;52.384;13.420;2023-03-25T08:20:16;74.00;;;39.80;;
11255;SDS011;5685;52.384;13.420;2023-03-25T08:23:19;73.10;;;39.47;;
11255;SDS011;5685;52.384;13.420;2023-03-25T08:26:25;72.50;;;39.20;;
11255;SDS011;5685;52.384;13.420;2023-03-25T08:29:29;73.13;;;39.57;;
11255;SDS011;5685;52.384;13.420;2023-03-25T08:32:35;72.37;;;39.10;;
11255;SDS011;5685;52.384;13.420;2023-03-25T08:35:39;72.53;;;39.20;;
11255;SDS011;5685;52.384;13.420;2023-03-25T08:38:42;73.13;;;39.50;;
11255;SDS011;5685;52.384;13.420;2023-03-25T08:41:44;73.10;;;39.47;;
11255;SDS011;5685;52.384;13.420;2023-03-25T08:44:47;73.33;;;39.63;;
11255;SDS011;5685;52.384;13.420;2023-03-25T08:47:51;73.13;;;39.50;;
11255;SDS011;5685;52.384;13.420;2023-03-25T08:50:54;73.00;;;39.47;;
11255;SDS011;5685;52.384;13.420;2023-03-25T08:53:57;72.90;;;39.50;;
11255;SDS011;5685;52.384;13.420;2023-03-25T08:57:00;72.23;;;39.13;;
11255;SDS011;5685;52.384;13.420;2023-03-25T09:00:03;72.67;;;39.37;;
11255;SDS011;5685;52.384;13.420;2023-03-25T09:03:09;73.00;;;39.37;;
11255;SDS011;5685;52.384;13.420;2023-03-25T09:06:12;72.97;;;39.30;;
11255;SDS011;5685;52.384;13.420;2023-03-25T09:09:14;72.77;;;39.30;;
11255;SDS011;5685;52.384;13.420;2023-03-25T09:12:17;73.27;;;39.60;;
11255;SDS011;5685;52.384;13.420;2023-03-25T09:15:20;73.63;;;39.70;;
11255;SDS011;5685;52.384;13.420;2023-03-25T09:18:24;72.93;;;39.50;;
11255;SDS011;5685;52.384;13.420;2023-03-25T09:21:27;72.83;;;39.30;;
11255;SDS011;5685;52.384;13.420;2023-03-25T09:24:29;72.67;;;39.37;;
11255;SDS011;5685;52.384;13.420;2023-03-25T09:27:33;72.37;;;39.17;;
11255;SDS011;5685;52.384;13.420;2023-03-25T09:30:35;72.60;;;39.30;;
11255;SDS011;5685;52.384;13.420;2023-03-25T09:33:39;72.27;;;39.20;;
11255;SDS011;5685;52.384;13.420;2023-03-25T09:36:42;71.90;;;39.00;;
11255;SDS011;5685;52.384;13.420;2023-03-25T09:39:45;72.60;;;39.30;;
11255;SDS011;5685;52.384;13.420;2023-03-25T09:42:53;72.03;;;39.23;;
11255;SDS011;5685;52.384;13.420;2023-03-25T09:46:02;72.10;;;39.30;;
11255;SDS011;5685;52.384;13.420;2023-03-25T09:49:09;71.70;;;39.10;;
11255;SDS011;5685;52.384;13.420;2023-03-25T09:52:15;72.07;;;39.30;;
11255;SDS011;5685;52.384;13.420;2023-03-25T09:55:22;72.00;;;39.17;;
11255;SDS011;5685;52.384;13.420;2023-03-25T09:58:27;71.83;;;38.97;;
11255;SDS011;5685;52.384;13.420;2023-03-25T10:01:36;72.03;;;39.07;;
11255;SDS011;5685;52.384;13.420;2023-03-25T10:04:49;71.97;;;39.07;;
11255;SDS011;5685;52.384;13.420;2023-03-25T10:08:08;71.90;;;39.13;;
11255;SDS011;5685;52.384;13.420;2023-03-25T10:11:17;71.60;;;38.93;;
11255;SDS011;5685;52.384;13.420;2023-03-25T10:14:25;71.90;;;38.97;;
11255;SDS011;5685;52.384;13.420;2023-03-25T10:17:31;72.10;;;39.13;;
11255;SDS011;5685;52.384;13.420;2023-03-25T10:20:42;72.03;;;39.10;;
11255;SDS011;5685;52.384;13.420;2023-03-25T10:23:52;71.80;;;39.07;;
11255;SDS011;5685;52.384;13.420;2023-03-25T10:27:03;72.30;;;39.27;;
11255;SDS011;5685;52.384;13.420;2023-03-25T10:30:09;71.87;;;39.00;;
11255;SDS011;5685;52.384;13.420;2023-03-25T10:33:17;72.40;;;39.40;;
11255;SDS011;5685;52.384;13.420;2023-03-25T10:36:26;71.77;;;38.87;;
11255;SDS011;5685;52.384;13.420;2023-03-25T10:39:31;71.87;;;39.00;;
11255;SDS011;5685;52.384;13.420;2023-03-25T10:42:37;72.50;;;39.43;;
11255;SDS011;5685;52.384;13.420;2023-03-25T10:45:42;72.60;;;39.30;;
11255;SDS011;5685;52.384;13.420;2023-03-25T10:48:46;72.87;;;39.57;;
11255;SDS011;5685;52.384;13.420;2023-03-25T10:51:51;72.87;;;39.53;;
11255;SDS011;5685;52.384;13.420;2023-03-25T10:54:56;72.43;;;39.50;;
11255;SDS011;5685;52.384;13.420;2023-03-25T10:57:59;72.60;;;39.40;;
11255;SDS011;5685;52.384;13.420;2023-03-25T11:01:06;72.50;;;39.30;;
11255;SDS011;5685;52.384;13.420;2023-03-25T11:04:12;72.07;;;39.07;;
11255;SDS011;5685;52.384;13.420;2023-03-25T11:07:19;72.33;;;39.33;;
11255;SDS011;5685;52.384;13.420;2023-03-25T11:10:24;72.07;;;39.17;;
11255;SDS011;5685;52.384;13.420;2023-03-25T11:13:29;72.23;;;39.20;;
11255;SDS011;5685;52.384;13.420;2023-03-25T11:16:32;72.17;;;39.27;;
11255;SDS011;5685;52.384;13.420;2023-03-25T11:19:38;72.17;;;39.27;;
11255;SDS011;5685;52.384;13.420;2023-03-25T11:22:45;72.50;;;39.30;;
11255;SDS011;5685;52.384;13.420;2023-03-25T11:25:50;72.47;;;39.33;;
11255;SDS011;5685;52.384;13.420;2023-03-25T11:28:55;72.57;;;39.33;;
11255;SDS011;5685;52.384;13.420;2023-03-25T11:32:05;71.90;;;39.17;;
11255;SDS011;5685;52.384;13.420;2023-03-25T11:35:14;72.23;;;39.37;;
11255;SDS011;5685;52.384;13.420;2023-03-25T11:38:19;72.57;;;39.47;;
11255;SDS011;5685;52.384;13.420;2023-03-25T11:41:26;72.60;;;39.40;;
11255;SDS011;5685;52.384;13.420;2023-03-25T11:44:30;72.50;;;39.33;;
11255;SDS011;5685;52.384;13.420;2023-03-25T11:47:34;72.40;;;39.30;;
11255;SDS011;5685;52.384;13.420;2023-03-25T11:50:42;72.10;;;39.17;;
11255;SDS011;5685;52.384;13.420;2023-03-25T11:53:55;72.30;;;39.20;;
11255;SDS011;5685;52.384;13.420;2023-03-25T11:56:59;72.50;;;39.37;;
11255;SDS011;5685;52.384;13.420;2023-03-25T12:00:05;72.27;;;39.20;;
11255;SDS011;5685;52.384;13.420;2023-03-25T12:03:28;71.87;;;38.97;;
11255;SDS011;5685;52.384;13.420;2023-03-25T12:06:32;72.20;;;39.23;;
11255;SDS011;5685;52.384;13.420;2023-03-25T12:09:36;72.80;;;39.47;;
11255;SDS011;5685;52.384;13.420;2023-03-25T12:12:42;72.13;;;39.17;;
11255;SDS011;5685;52.384;13.420;2023-03-25T12:15:51;72.67;;;39.50;;
11255;SDS011;5685;52.384;13.420;2023-03-25T12:19:02;72.50;;;39.37;;
11255;SDS011;5685;52.384;13.420;2023-03-25T12:22:14;72.87;;;39.53;;
11255;SDS011;5685;52.384;13.420;2023-03-25T12:25:27;72.57;;;39.40;;
11255;SDS011;5685;52.384;13.420;2023-03-25T12:32:21;72.30;;;39.17;;
11255;SDS011;5685;52.384;13.420;2023-03-25T12:35:30;71.67;;;39.03;;
11255;SDS011;5685;52.384;13.420;2023-03-25T12:38:39;72.33;;;39.27;;
11255;SDS011;5685;52.384;13.420;2023-03-25T12:41:51;72.20;;;39.20;;
11255;SDS011;5685;52.384;13.420;2023-03-25T12:45:02;72.40;;;39.47;;
11255;SDS011;5685;52.384;13.420;2023-03-25T12:48:18;73.00;;;39.67;;
11255;SDS011;5685;52.384;13.420;2023-03-25T12:51:30;72.57;;;39.37;;
11255;SDS011;5685;52.384;13.420;2023-03-25T12:54:44;72.77;;;39.30;;
11255;SDS011;5685;52.384;13.420;2023-03-25T12:58:00;72.37;;;39.30;;
11255;SDS011;5685;52.384;13.420;2023-03-25T13:01:17;72.30;;;39.30;;
11255;SDS011;5685;52.384;13.420;2023-03-25T13:04:34;71.97;;;39.10;;
11255;SDS011;5685;52.384;13.420;2023-03-25T13:07:44;72.23;;;39.30;;
11255;SDS011;5685;52.384;13.420;2023-03-25T13:10:50;72.20;;;39.33;;
11255;SDS011;5685;52.384;13.420;2023-03-25T13:14:00;72.90;;;39.60;;
11255;SDS011;5685;52.384;13.420;2023-03-25T13:17:09;72.17;;;39.43;;
11255;SDS011;5685;52.384;13.420;2023-03-25T13:20:15;72.33;;;39.40;;
11255;SDS011;5685;52.384;13.420;2023-03-25T13:23:20;72.37;;;39.30;;
11255;SDS011;5685;52.384;13.420;2023-03-25T13:26:24;72.57;;;39.53;;
11255;SDS011;5685;52.384;13.420;2023-03-25T13:29:32;72.43;;;39.43;;
11255;SDS011;5685;52.384;13.420;2023-03-25T13:32:40;72.47;;;39.30;;
11255;SDS011;5685;52.384;13.420;2023-03-25T13:35:48;72.70;;;39.43;;
11255;SDS011;5685;52.384;13.420;2023-03-25T13:38:53;72.30;;;39.50;;
11255;SDS011;5685;52.384;13.420;2023-03-25T13:41:59;72.87;;;39.60;;
11255;SDS011;5685;52.384;13.420;2023-03-25T13:45:08;73.03;;;39.80;;
11255;SDS011;5685;52.384;13.420;2023-03-25T13:48:17;72.80;;;39.60;;
11255;SDS011;5685;52.384;13.420;2023-03-25T13:51:22;73.00;;;39.60;;
11255;SDS011;5685;52.384;13.420;2023-03-25T13:54:26;73.13;;;39.70;;
11255;SDS011;5685;52.384;13.420;2023-03-25T13:57:35;72.60;;;39.47;;
11255;SDS011;5685;52.384;13.420;2023-03-25T14:01:09;72.20;;;39.13;;
11255;SDS011;5685;52.384;13.420;2023-03-25T14:11:23;72.90;;;39.50;;
11255;SDS011;5685;52.384;13.420;2023-03-25T14:14:26;72.87;;;39.43;;
11255;SDS011;5685;52.384;13.420;2023-03-25T14:17:32;73.50;;;39.77;;
11255;SDS011;5685;52.384;13.420;2023-03-25T14:20:36;73.10;;;39.53;;
11255;SDS011;5685;52.384;13.420;2023-03-25T14:23:40;73.57;;;39.80;;
11255;SDS011;5685;52.384;13.420;2023-03-25T14:26:43;73.27;;;39.73;;
11255;SDS011;5685;52.384;13.420;2023-03-25T14:29:51;73.53;;;39.80;;
11255;SDS011;5685;52.384;13.420;2023-03-25T14:32:57;73.20;;;39.73;;
11255;SDS011;5685;52.384;13.420;2023-03-25T14:36:02;72.80;;;39.60;;
11255;SDS011;5685;52.384;13.420;2023-03-25T14:39:07;73.30;;;39.80;;
11255;SDS011;5685;52.384;13.420;2023-03-25T14:42:22;72.73;;;39.40;;
11255;SDS011;5685;52.384;13.420;2023-03-25T14:49:16;72.83;;;39.50;;
11255;SDS011;5685;52.384;13.420;2023-03-25T14:52:23;73.43;;;39.90;;
11255;SDS011;5685;52.384;13.420;2023-03-25T14:55:30;73.27;;;39.60;;
11255;SDS011;5685;52.384;13.420;2023-03-25T14:58:36;72.50;;;39.40;;
11255;SDS011;5685;52.384;13.420;2023-03-25T15:01:41;73.30;;;39.70;;
11255;SDS011;5685;52.384;13.420;2023-03-25T15:04:46;72.60;;;39.43;;
11255;SDS011;5685;52.384;13.420;2023-03-25T15:07:53;72.77;;;39.63;;
11255;SDS011;5685;52.384;13.420;2023-03-25T15:11:03;72.97;;;39.70;;
11255;SDS011;5685;52.384;13.420;2023-03-25T15:14:07;73.00;;;39.67;;
11255;SDS011;5685;52.384;13.420;2023-03-25T15:17:37;72.80;;;39.67;;
11255;SDS011;5685;52.384;13.420;2023-03-25T15:20:41;73.10;;;39.70;;
11255;SDS011;5685;52.384;13.420;2023-03-25T15:23:44;73.30;;;39.77;;
11255;SDS011;5685;52.384;13.420;2023-03-25T15:26:47;73.60;;;39.90;;
11255;SDS011;5685;52.384;13.420;2023-03-25T15:29:53;72.53;;;39.47;;
11255;SDS011;5685;52.384;13.420;2023-03-25T15:33:07;73.23;;;39.80;;
11255;SDS011;5685;52.384;13.420;2023-03-25T15:36:26;73.50;;;39.97;;
11255;SDS011;5685;52.384;13.420;2023-03-25T15:39:40;73.37;;;39.87;;
11255;SDS011;5685;52.384;13.420;2023-03-25T15:43:05;73.10;;;39.80;;
11255;SDS011;5685;52.384;13.420;2023-03-25T15:46:50;73.00;;;39.70;;
11255;SDS011;5685;52.384;13.420;2023-03-25T15:50:10;73.20;;;39.83;;
11255;SDS011;5685;52.384;13.420;2023-03-25T15:53:27;73.33;;;39.80;;
11255;SDS011;5685;52.384;13.420;2023-03-25T15:56:46;73.07;;;39.67;;
11255;SDS011;5685;52.384;13.420;2023-03-25T15:59:54;72.87;;;39.70;;
11255;SDS011;5685;52.384;13.420;2023-03-25T16:03:00;73.70;;;40.17;;
11255;SDS011;5685;52.384;13.420;2023-03-25T16:06:07;73.13;;;39.70;;
11255;SDS011;5685;52.384;13.420;2023-03-25T16:09:16;72.97;;;39.67;;
11255;SDS011;5685;52.384;13.420;2023-03-25T16:12:21;73.07;;;39.80;;
11255;SDS011;5685;52.384;13.420;2023-03-25T16:15:25;72.47;;;39.50;;
11255;SDS011;5685;52.384;13.420;2023-03-25T16:18:29;72.63;;;39.70;;
11255;SDS011;5685;52.384;13.420;2023-03-25T16:21:32;72.60;;;39.60;;
11255;SDS011;5685;52.384;13.420;2023-03-25T16:24:36;72.70;;;39.70;;
11255;SDS011;5685;52.384;13.420;2023-03-25T16:27:41;72.47;;;39.60;;
11255;SDS011;5685;52.384;13.420;2023-03-25T16:30:47;73.27;;;39.97;;
11255;SDS011;5685;52.384;13.420;2023-03-25T16:33:51;73.03;;;39.80;;
11255;SDS011;5685;52.384;13.420;2023-03-25T16:37:00;73.10;;;39.80;;
11255;SDS011;5685;52.384;13.420;2023-03-25T16:40:05;73.57;;;40.00;;
11255;SDS011;5685;52.384;13.420;2023-03-25T16:43:11;73.40;;;39.80;;
11255;SDS011;5685;52.384;13.420;2023-03-25T16:46:15;72.90;;;39.63;;
11255;SDS011;5685;52.384;13.420;2023-03-25T16:49:20;73.47;;;40.00;;
11255;SDS011;5685;52.384;13.420;2023-03-25T16:52:28;73.03;;;39.77;;
11255;SDS011;5685;52.384;13.420;2023-03-25T16:55:42;73.00;;;39.70;;
11255;SDS011;5685;52.384;13.420;2023-03-25T16:58:52;73.20;;;39.73;;
11255;SDS011;5685;52.384;13.420;2023-03-25T17:02:01;73.30;;;39.80;;
11255;SDS011;5685;52.384;13.420;2023-03-25T17:05:11;73.83;;;40.00;;
11255;SDS011;5685;52.384;13.420;2023-03-25T17:08:15;74.03;;;39.90;;
11255;SDS011;5685;52.384;13.420;2023-03-25T17:11:20;73.30;;;39.83;;
11255;SDS011;5685;52.384;13.420;2023-03-25T17:14:26;73.50;;;39.90;;
11255;SDS011;5685;52.384;13.420;2023-03-25T17:17:33;73.70;;;40.00;;
11255;SDS011;5685;52.384;13.420;2023-03-25T17:20:41;73.80;;;40.00;;
11255;SDS011;5685;52.384;13.420;2023-03-25T17:23:45;73.80;;;39.97;;
11255;SDS011;5685;52.384;13.420;2023-03-25T17:26:54;73.47;;;39.87;;
11255;SDS011;5685;52.384;13.420;2023-03-25T17:29:58;73.70;;;40.00;;
11255;SDS011;5685;52.384;13.420;2023-03-25T17:33:18;73.37;;;39.77;;
11255;SDS011;5685;52.384;13.420;2023-03-25T17:36:21;73.83;;;40.10;;
11255;SDS011;5685;52.384;13.420;2023-03-25T17:39:24;73.50;;;39.80;;
11255;SDS011;5685;52.384;13.420;2023-03-25T17:42:29;73.80;;;39.90;;
11255;SDS011;5685;52.384;13.420;2023-03-25T17:45:33;73.97;;;40.00;;
11255;SDS011;5685;52.384;13.420;2023-03-25T17:48:35;73.80;;;39.93;;
11255;SDS011;5685;52.384;13.420;2023-03-25T17:51:38;73.70;;;39.87;;
11255;SDS011;5685;52.384;13.420;2023-03-25T17:54:41;73.67;;;39.87;;
11255;SDS011;5685;52.384;13.420;2023-03-25T17:57:45;73.63;;;39.90;;
11255;SDS011;5685;52.384;13.420;2023-03-25T18:00:49;74.20;;;40.10;;
11255;SDS011;5685;52.384;13.420;2023-03-25T18:03:52;73.03;;;39.57;;
11255;SDS011;5685;52.384;13.420;2023-03-25T18:06:55;73.90;;;39.97;;
11255;SDS011;5685;52.384;13.420;2023-03-25T18:09:57;74.17;;;40.07;;
11255;SDS011;5685;52.384;13.420;2023-03-25T18:13:02;73.90;;;40.00;;
11255;SDS011;5685;52.384;13.420;2023-03-25T18:16:05;73.43;;;39.77;;
11255;SDS011;5685;52.384;13.420;2023-03-25T18:19:11;73.97;;;40.10;;
11255;SDS011;5685;52.384;13.420;2023-03-25T18:22:14;74.37;;;40.10;;
11255;SDS011;5685;52.384;13.420;2023-03-25T18:25:17;74.17;;;40.00;;
11255;SDS011;5685;52.384;13.420;2023-03-25T18:28:22;73.77;;;39.77;;